sensor_id;sensor_type;location;lat;lon;timestamp;temperature;humidity
11087;DHT22;5597;47.588;9.642;2023-02-28T00:00:22;-1.40;99.90
11087;DHT22;5597;47.588;9.642;2023-02-28T00:02:48;-1.40;99.90
11087;DHT22;5597;47.588;9.642;2023-02-28T00:05:16;-1.30;99.90
11087;DHT22;5597;47.588;9.642;2023-02-28T00:07:42;-1.30;99.90
11087;DHT22;5597;47.588;9.642;2023-02-28T00:10:10;-1.30;99.90
11087;DHT22;5597;47.588;9.642;2023-02-28T00:12:36;-1.30;99.90
11087;DHT22;5597;47.588;9.642;2023-02-28T00:15:05;-1.40;99.90
11087;DHT22;5597;47.588;9.642;2023-02-28T00:17:31;-1.40;99.90
11087;DHT22;5597;47.588;9.642;2023-02-28T00:19:57;-1.40;99.90
11087;DHT22;5597;47.588;9.642;2023-02-28T00:22:30;-1.40;99.90
11087;DHT22;5597;47.588;9.642;2023-02-28T00:24:56;-1.40;99.90
11087;DHT22;5597;47.588;9.642;2023-02-28T00:27:22;-1.40;99.90
11087;DHT22;5597;47.588;9.642;2023-02-28T00:29:48;-1.40;99.90
11087;DHT22;5597;47.588;9.642;2023-02-28T00:32:13;-1.40;99.90
11087;DHT22;5597;47.588;9.642;2023-02-28T00:34:39;-1.40;99.90
11087;DHT22;5597;47.588;9.642;2023-02-28T00:37:09;-1.40;99.90
11087;DHT22;5597;47.588;9.642;2023-02-28T00:39:36;-1.50;99.90
11087;DHT22;5597;47.588;9.642;2023-02-28T00:42:03;-1.40;99.90
11087;DHT22;5597;47.588;9.642;2023-02-28T00:44:29;-1.40;99.90
11087;DHT22;5597;47.588;9.642;2023-02-28T00:46:54;-1.40;99.90
11087;DHT22;5597;47.588;9.642;2023-02-28T00:49:21;-1.40;99.90
11087;DHT22;5597;47.588;9.642;2023-02-28T00:51:47;-1.40;99.90
11087;DHT22;5597;47.588;9.642;2023-02-28T00:54:13;-1.40;99.90
11087;DHT22;5597;47.588;9.642;2023-02-28T00:56:39;-1.40;99.90
11087;DHT22;5597;47.588;9.642;2023-02-28T00:59:05;-1.40;99.90
11087;DHT22;5597;47.588;9.642;2023-02-28T01:01:30;-1.30;99.90
11087;DHT22;5597;47.588;9.642;2023-02-28T01:03:56;-1.30;99.90
11087;DHT22;5597;47.588;9.642;2023-02-28T01:06:21;-1.30;99.90
11087;DHT22;5597;47.588;9.642;2023-02-28T01:08:47;-1.30;99.90
11087;DHT22;5597;47.588;9.642;2023-02-28T01:11:15;-1.30;99.90
11087;DHT22;5597;47.588;9.642;2023-02-28T01:13:43;-1.30;99.90
11087;DHT22;5597;47.588;9.642;2023-02-28T01:16:09;-1.30;99.90
11087;DHT22;5597;47.588;9.642;2023-02-28T01:18:35;-1.30;99.90
11087;DHT22;5597;47.588;9.642;2023-02-28T01:21:09;-1.30;99.90
11087;DHT22;5597;47.588;9.642;2023-02-28T01:23:35;-1.30;99.90
11087;DHT22;5597;47.588;9.642;2023-02-28T01:26:09;-1.30;99.90
11087;DHT22;5597;47.588;9.642;2023-02-28T01:28:35;-1.30;99.90
11087;DHT22;5597;47.588;9.642;2023-02-28T01:31:01;-1.30;99.90
11087;DHT22;5597;47.588;9.642;2023-02-28T01:33:27;-1.30;99.90
11087;DHT22;5597;47.588;9.642;2023-02-28T01:36:09;-1.30;99.90
11087;DHT22;5597;47.588;9.642;2023-02-28T01:38:36;-1.30;99.90
11087;DHT22;5597;47.588;9.642;2023-02-28T01:41:02;-1.30;99.90
11087;DHT22;5597;47.588;9.642;2023-02-28T01:43:30;-1.40;99.90
11087;DHT22;5597;47.588;9.642;2023-02-28T01:45:57;-1.30;99.90
11087;DHT22;5597;47.588;9.642;2023-02-28T01:48:30;-1.40;99.90
11087;DHT22;5597;47.588;9.642;2023-02-28T01:50:59;-1.40;99.90
11087;DHT22;5597;47.588;9.642;2023-02-28T01:53:33;-1.40;99.90
11087;DHT22;5597;47.588;9.642;2023-02-28T01:56:00;-1.40;99.90
11087;DHT22;5597;47.588;9.642;2023-02-28T01:58:28;-1.40;99.90
11087;DHT22;5597;47.588;9.642;2023-02-28T02:00:53;-1.40;99.90
11087;DHT22;5597;47.588;9.642;2023-02-28T02:03:20;-1.40;99.90
11087;DHT22;5597;47.588;9.642;2023-02-28T02:05:46;-1.40;99.90
11087;DHT22;5597;47.588;9.642;2023-02-28T02:08:24;-1.40;99.90
11087;DHT22;5597;47.588;9.642;2023-02-28T02:10:53;-1.40;99.90
11087;DHT22;5597;47.588;9.642;2023-02-28T02:15:56;-1.50;99.90
11087;DHT22;5597;47.588;9.642;2023-02-28T02:18:33;-1.50;99.90
11087;DHT22;5597;47.588;9.642;2023-02-28T02:29:59;-1.60;99.90
11087;DHT22;5597;47.588;9.642;2023-02-28T02:32:51;-1.60;99.90
11087;DHT22;5597;47.588;9.642;2023-02-28T02:38:24;-1.70;99.90
11087;DHT22;5597;47.588;9.642;2023-02-28T02:43:48;-1.60;99.90
11087;DHT22;5597;47.588;9.642;2023-02-28T02:46:55;-1.70;99.90
11087;DHT22;5597;47.588;9.642;2023-02-28T02:49:30;-1.70;99.90
11087;DHT22;5597;47.588;9.642;2023-02-28T02:51:58;-1.70;99.90
11087;DHT22;5597;47.588;9.642;2023-02-28T02:54:29;-1.80;99.90
11087;DHT22;5597;47.588;9.642;2023-02-28T02:56:59;-1.80;99.90
11087;DHT22;5597;47.588;9.642;2023-02-28T02:59:28;-1.80;99.90
11087;DHT22;5597;47.588;9.642;2023-02-28T03:01:57;-1.80;99.90
11087;DHT22;5597;47.588;9.642;2023-02-28T03:04:28;-1.80;99.90
11087;DHT22;5597;47.588;9.642;2023-02-28T03:06:54;-1.90;99.90
11087;DHT22;5597;47.588;9.642;2023-02-28T03:09:25;-1.90;99.90
11087;DHT22;5597;47.588;9.642;2023-02-28T03:11:52;-1.90;99.90
11087;DHT22;5597;47.588;9.642;2023-02-28T03:15:02;-1.90;99.90
11087;DHT22;5597;47.588;9.642;2023-02-28T03:17:43;-2.00;99.90
11087;DHT22;5597;47.588;9.642;2023-02-28T03:23:01;-2.00;99.90
11087;DHT22;5597;47.588;9.642;2023-02-28T03:25:37;-2.00;99.90
11087;DHT22;5597;47.588;9.642;2023-02-28T03:28:14;-2.00;99.90
11087;DHT22;5597;47.588;9.642;2023-02-28T03:41:19;-2.10;99.90
11087;DHT22;5597;47.588;9.642;2023-02-28T03:44:11;-2.10;99.90
11087;DHT22;5597;47.588;9.642;2023-02-28T03:46:46;-2.10;99.90
11087;DHT22;5597;47.588;9.642;2023-02-28T03:49:18;-2.10;99.90
11087;DHT22;5597;47.588;9.642;2023-02-28T03:51:46;-2.10;99.90
11087;DHT22;5597;47.588;9.642;2023-02-28T03:54:18;-2.10;99.90
11087;DHT22;5597;47.588;9.642;2023-02-28T03:56:59;-2.10;99.90
11087;DHT22;5597;47.588;9.642;2023-02-28T03:59:39;-2.10;99.90
11087;DHT22;5597;47.588;9.642;2023-02-28T04:02:08;-2.10;99.90
11087;DHT22;5597;47.588;9.642;2023-02-28T04:04:34;-2.10;99.90
11087;DHT22;5597;47.588;9.642;2023-02-28T04:07:08;-2.10;99.90
11087;DHT22;5597;47.588;9.642;2023-02-28T04:09:34;-2.10;99.90
11087;DHT22;5597;47.588;9.642;2023-02-28T04:12:00;-2.20;99.90
11087;DHT22;5597;47.588;9.642;2023-02-28T04:14:26;-2.20;99.90
11087;DHT22;5597;47.588;9.642;2023-02-28T04:16:52;-2.10;99.90
11087;DHT22;5597;47.588;9.642;2023-02-28T04:19:18;-2.10;99.90
11087;DHT22;5597;47.588;9.642;2023-02-28T04:21:48;-2.10;99.90
11087;DHT22;5597;47.588;9.642;2023-02-28T04:24:18;-2.10;99.90
11087;DHT22;5597;47.588;9.642;2023-02-28T04:26:46;-2.10;99.90
11087;DHT22;5597;47.588;9.642;2023-02-28T04:29:14;-2.10;99.90
11087;DHT22;5597;47.588;9.642;2023-02-28T04:31:43;-2.10;99.90
11087;DHT22;5597;47.588;9.642;2023-02-28T04:34:08;-2.20;99.90
11087;DHT22;5597;47.588;9.642;2023-02-28T04:36:34;-2.20;99.90
11087;DHT22;5597;47.588;9.642;2023-02-28T04:38:59;-2.20;99.90
11087;DHT22;5597;47.588;9.642;2023-02-28T04:41:25;-2.20;99.90
11087;DHT22;5597;47.588;9.642;2023-02-28T04:43:51;-2.20;99.90
11087;DHT22;5597;47.588;9.642;2023-02-28T04:46:18;-2.10;99.90
11087;DHT22;5597;47.588;9.642;2023-02-28T04:48:44;-2.10;99.90
11087;DHT22;5597;47.588;9.642;2023-02-28T04:51:12;-2.10;99.90
11087;DHT22;5597;47.588;9.642;2023-02-28T04:53:40;-2.10;99.90
11087;DHT22;5597;47.588;9.642;2023-02-28T04:56:07;-2.10;99.90
11087;DHT22;5597;47.588;9.642;2023-02-28T04:58:34;-2.10;99.90
11087;DHT22;5597;47.588;9.642;2023-02-28T05:01:04;-2.20;99.90
11087;DHT22;5597;47.588;9.642;2023-02-28T05:03:39;-2.10;99.90
11087;DHT22;5597;47.588;9.642;2023-02-28T05:06:09;-2.10;99.90
11087;DHT22;5597;47.588;9.642;2023-02-28T05:08:35;-2.10;99.90
11087;DHT22;5597;47.588;9.642;2023-02-28T05:11:01;-2.10;99.90
11087;DHT22;5597;47.588;9.642;2023-02-28T05:13:28;-2.10;99.90
11087;DHT22;5597;47.588;9.642;2023-02-28T05:15:54;-2.10;99.90
11087;DHT22;5597;47.588;9.642;2023-02-28T05:18:20;-2.20;99.90
11087;DHT22;5597;47.588;9.642;2023-02-28T05:20:45;-2.10;99.90
11087;DHT22;5597;47.588;9.642;2023-02-28T05:23:12;-2.10;99.90
11087;DHT22;5597;47.588;9.642;2023-02-28T05:25:38;-2.10;99.90
11087;DHT22;5597;47.588;9.642;2023-02-28T05:28:04;-2.20;99.90
11087;DHT22;5597;47.588;9.642;2023-02-28T05:30:30;-2.10;99.90
11087;DHT22;5597;47.588;9.642;2023-02-28T05:32:57;-2.10;99.90
11087;DHT22;5597;47.588;9.642;2023-02-28T05:35:24;-2.10;99.90
11087;DHT22;5597;47.588;9.642;2023-02-28T05:37:49;-2.10;99.90
11087;DHT22;5597;47.588;9.642;2023-02-28T05:40:15;-2.10;99.90
11087;DHT22;5597;47.588;9.642;2023-02-28T05:42:41;-2.20;99.90
11087;DHT22;5597;47.588;9.642;2023-02-28T05:45:07;-2.10;99.90
11087;DHT22;5597;47.588;9.642;2023-02-28T05:47:34;-2.10;99.90
11087;DHT22;5597;47.588;9.642;2023-02-28T05:49:59;-2.10;99.90
11087;DHT22;5597;47.588;9.642;2023-02-28T05:52:26;-2.20;99.90
11087;DHT22;5597;47.588;9.642;2023-02-28T05:54:52;-2.20;99.90
11087;DHT22;5597;47.588;9.642;2023-02-28T05:57:18;-2.20;99.90
11087;DHT22;5597;47.588;9.642;2023-02-28T05:59:44;-2.20;99.90
11087;DHT22;5597;47.588;9.642;2023-02-28T06:02:14;-2.20;99.90
11087;DHT22;5597;47.588;9.642;2023-02-28T06:04:40;-2.20;99.90
11087;DHT22;5597;47.588;9.642;2023-02-28T06:07:07;-2.20;99.90
11087;DHT22;5597;47.588;9.642;2023-02-28T06:09:33;-2.20;99.90
11087;DHT22;5597;47.588;9.642;2023-02-28T06:12:00;-2.20;99.90
11087;DHT22;5597;47.588;9.642;2023-02-28T06:14:26;-2.20;99.90
11087;DHT22;5597;47.588;9.642;2023-02-28T06:16:51;-2.20;99.90
11087;DHT22;5597;47.588;9.642;2023-02-28T06:19:17;-2.20;99.90
11087;DHT22;5597;47.588;9.642;2023-02-28T06:21:43;-2.20;99.90
11087;DHT22;5597;47.588;9.642;2023-02-28T06:24:09;-2.20;99.90
11087;DHT22;5597;47.588;9.642;2023-02-28T06:26:36;-2.20;99.90
11087;DHT22;5597;47.588;9.642;2023-02-28T06:29:01;-2.20;99.90
11087;DHT22;5597;47.588;9.642;2023-02-28T06:31:28;-2.20;99.90
11087;DHT22;5597;47.588;9.642;2023-02-28T06:33:54;-2.20;99.90
11087;DHT22;5597;47.588;9.642;2023-02-28T06:36:20;-2.20;99.90
11087;DHT22;5597;47.588;9.642;2023-02-28T06:38:46;-2.20;99.90
11087;DHT22;5597;47.588;9.642;2023-02-28T06:41:17;-2.20;99.90
11087;DHT22;5597;47.588;9.642;2023-02-28T06:43:43;-2.20;99.90
11087;DHT22;5597;47.588;9.642;2023-02-28T06:46:11;-2.20;99.90
11087;DHT22;5597;47.588;9.642;2023-02-28T06:48:37;-2.20;99.90
11087;DHT22;5597;47.588;9.642;2023-02-28T06:51:09;-2.20;99.90
11087;DHT22;5597;47.588;9.642;2023-02-28T06:53:36;-2.20;99.90
11087;DHT22;5597;47.588;9.642;2023-02-28T06:56:09;-2.20;99.90
11087;DHT22;5597;47.588;9.642;2023-02-28T06:58:36;-2.10;99.90
11087;DHT22;5597;47.588;9.642;2023-02-28T07:01:03;-2.10;99.90
11087;DHT22;5597;47.588;9.642;2023-02-28T07:03:29;-2.10;99.90
11087;DHT22;5597;47.588;9.642;2023-02-28T07:05:54;-2.10;99.90
11087;DHT22;5597;47.588;9.642;2023-02-28T07:08:22;-2.10;99.90
11087;DHT22;5597;47.588;9.642;2023-02-28T07:10:52;-2.10;99.90
11087;DHT22;5597;47.588;9.642;2023-02-28T07:13:17;-2.10;99.90
11087;DHT22;5597;47.588;9.642;2023-02-28T07:15:43;-2.10;99.90
11087;DHT22;5597;47.588;9.642;2023-02-28T07:18:08;-2.10;99.90
11087;DHT22;5597;47.588;9.642;2023-02-28T07:20:34;-2.00;99.90
11087;DHT22;5597;47.588;9.642;2023-02-28T07:23:00;-2.00;99.90
11087;DHT22;5597;47.588;9.642;2023-02-28T07:25:27;-2.00;99.90
11087;DHT22;5597;47.588;9.642;2023-02-28T07:27:54;-1.90;99.90
11087;DHT22;5597;47.588;9.642;2023-02-28T07:30:20;-1.90;99.90
11087;DHT22;5597;47.588;9.642;2023-02-28T07:32:45;-1.90;99.90
11087;DHT22;5597;47.588;9.642;2023-02-28T07:35:11;-1.90;99.90
11087;DHT22;5597;47.588;9.642;2023-02-28T07:37:37;-1.80;99.90
11087;DHT22;5597;47.588;9.642;2023-02-28T07:40:07;-1.80;99.90
11087;DHT22;5597;47.588;9.642;2023-02-28T07:42:34;-1.80;99.90
11087;DHT22;5597;47.588;9.642;2023-02-28T07:45:00;-1.80;99.90
11087;DHT22;5597;47.588;9.642;2023-02-28T07:47:26;-1.80;99.90
11087;DHT22;5597;47.588;9.642;2023-02-28T07:49:51;-1.70;99.90
11087;DHT22;5597;47.588;9.642;2023-02-28T07:52:17;-1.70;99.90
11087;DHT22;5597;47.588;9.642;2023-02-28T07:54:43;-1.70;99.90
11087;DHT22;5597;47.588;9.642;2023-02-28T07:57:09;-1.60;99.90
11087;DHT22;5597;47.588;9.642;2023-02-28T07:59:34;-1.60;99.90
11087;DHT22;5597;47.588;9.642;2023-02-28T08:02:00;-1.50;99.90
11087;DHT22;5597;47.588;9.642;2023-02-28T08:04:25;-1.40;99.90
11087;DHT22;5597;47.588;9.642;2023-02-28T08:06:51;-1.40;99.90
11087;DHT22;5597;47.588;9.642;2023-02-28T08:09:21;-1.30;99.90
11087;DHT22;5597;47.588;9.642;2023-02-28T08:11:47;-1.30;99.90
11087;DHT22;5597;47.588;9.642;2023-02-28T08:14:12;-1.30;99.90
11087;DHT22;5597;47.588;9.642;2023-02-28T08:16:38;-1.20;99.90
11087;DHT22;5597;47.588;9.642;2023-02-28T08:19:04;-1.20;99.90
11087;DHT22;5597;47.588;9.642;2023-02-28T08:21:30;-1.10;99.90
11087;DHT22;5597;47.588;9.642;2023-02-28T08:23:55;-1.10;99.90
11087;DHT22;5597;47.588;9.642;2023-02-28T08:26:22;-0.90;99.90
11087;DHT22;5597;47.588;9.642;2023-02-28T08:28:48;-0.90;99.90
11087;DHT22;5597;47.588;9.642;2023-02-28T08:31:15;-0.80;99.90
11087;DHT22;5597;47.588;9.642;2023-02-28T08:33:41;-0.70;99.90
11087;DHT22;5597;47.588;9.642;2023-02-28T08:36:08;-0.60;99.90
11087;DHT22;5597;47.588;9.642;2023-02-28T08:38:35;-0.60;99.90
11087;DHT22;5597;47.588;9.642;2023-02-28T08:41:06;-0.50;99.90
11087;DHT22;5597;47.588;9.642;2023-02-28T08:43:34;-0.50;99.90
11087;DHT22;5597;47.588;9.642;2023-02-28T08:46:00;-0.40;99.90
11087;DHT22;5597;47.588;9.642;2023-02-28T08:48:27;-0.30;99.90
11087;DHT22;5597;47.588;9.642;2023-02-28T08:51:01;-0.30;99.90
11087;DHT22;5597;47.588;9.642;2023-02-28T08:53:28;-0.20;99.90
11087;DHT22;5597;47.588;9.642;2023-02-28T08:55:58;-0.10;99.90
11087;DHT22;5597;47.588;9.642;2023-02-28T08:58:24;0.10;99.90
11087;DHT22;5597;47.588;9.642;2023-02-28T09:00:50;0.20;99.90
11087;DHT22;5597;47.588;9.642;2023-02-28T09:03:16;0.20;99.90
11087;DHT22;5597;47.588;9.642;2023-02-28T09:05:52;0.30;99.90
11087;DHT22;5597;47.588;9.642;2023-02-28T09:08:17;0.40;99.90
11087;DHT22;5597;47.588;9.642;2023-02-28T09:10:43;0.50;99.90
11087;DHT22;5597;47.588;9.642;2023-02-28T09:13:08;0.50;99.90
11087;DHT22;5597;47.588;9.642;2023-02-28T09:15:34;0.70;99.90
11087;DHT22;5597;47.588;9.642;2023-02-28T09:18:02;1.10;99.90
11087;DHT22;5597;47.588;9.642;2023-02-28T09:20:27;1.40;99.90
11087;DHT22;5597;47.588;9.642;2023-02-28T09:22:53;1.60;99.90
11087;DHT22;5597;47.588;9.642;2023-02-28T09:25:18;1.80;99.90
11087;DHT22;5597;47.588;9.642;2023-02-28T09:27:44;2.10;99.90
11087;DHT22;5597;47.588;9.642;2023-02-28T09:30:11;2.30;99.90
11087;DHT22;5597;47.588;9.642;2023-02-28T09:32:37;2.40;99.90
11087;DHT22;5597;47.588;9.642;2023-02-28T09:35:03;2.50;99.90
11087;DHT22;5597;47.588;9.642;2023-02-28T09:37:28;2.50;99.90
11087;DHT22;5597;47.588;9.642;2023-02-28T09:39:54;2.50;99.90
11087;DHT22;5597;47.588;9.642;2023-02-28T09:42:33;2.70;99.90
11087;DHT22;5597;47.588;9.642;2023-02-28T09:45:02;2.90;99.90
11087;DHT22;5597;47.588;9.642;2023-02-28T09:47:36;3.10;99.90
11087;DHT22;5597;47.588;9.642;2023-02-28T09:50:17;3.00;99.90
11087;DHT22;5597;47.588;9.642;2023-02-28T09:52:45;3.10;99.90
11087;DHT22;5597;47.588;9.642;2023-02-28T09:55:37;3.30;99.90
11087;DHT22;5597;47.588;9.642;2023-02-28T09:58:05;3.50;99.90
11087;DHT22;5597;47.588;9.642;2023-02-28T10:00:37;3.60;99.90
11087;DHT22;5597;47.588;9.642;2023-02-28T10:11:16;3.60;99.90
11087;DHT22;5597;47.588;9.642;2023-02-28T10:13:53;3.50;99.90
11087;DHT22;5597;47.588;9.642;2023-02-28T10:21:39;3.10;99.90
11087;DHT22;5597;47.588;9.642;2023-02-28T10:29:43;3.50;99.90
11087;DHT22;5597;47.588;9.642;2023-02-28T10:32:13;3.70;99.90
11087;DHT22;5597;47.588;9.642;2023-02-28T10:34:39;3.90;99.90
11087;DHT22;5597;47.588;9.642;2023-02-28T10:37:05;4.10;99.90
11087;DHT22;5597;47.588;9.642;2023-02-28T10:42:05;4.20;99.90
11087;DHT22;5597;47.588;9.642;2023-02-28T10:44:31;4.20;99.90
11087;DHT22;5597;47.588;9.642;2023-02-28T10:46:56;4.20;99.90
11087;DHT22;5597;47.588;9.642;2023-02-28T10:49:27;4.10;99.90
11087;DHT22;5597;47.588;9.642;2023-02-28T10:52:00;4.00;99.90
11087;DHT22;5597;47.588;9.642;2023-02-28T10:54:34;3.90;99.90
11087;DHT22;5597;47.588;9.642;2023-02-28T10:57:19;4.00;99.90
11087;DHT22;5597;47.588;9.642;2023-02-28T10:59:46;4.10;99.90
11087;DHT22;5597;47.588;9.642;2023-02-28T11:04:56;4.40;99.90
11087;DHT22;5597;47.588;9.642;2023-02-28T11:07:23;4.40;99.90
11087;DHT22;5597;47.588;9.642;2023-02-28T11:09:54;4.50;99.90
11087;DHT22;5597;47.588;9.642;2023-02-28T11:12:34;4.50;99.90
11087;DHT22;5597;47.588;9.642;2023-02-28T11:15:05;4.60;99.90
11087;DHT22;5597;47.588;9.642;2023-02-28T11:17:32;4.60;99.90
11087;DHT22;5597;47.588;9.642;2023-02-28T11:20:10;4.60;99.90
11087;DHT22;5597;47.588;9.642;2023-02-28T11:22:44;4.70;99.90
11087;DHT22;5597;47.588;9.642;2023-02-28T11:25:21;4.60;99.90
11087;DHT22;5597;47.588;9.642;2023-02-28T11:27:56;4.50;99.90
11087;DHT22;5597;47.588;9.642;2023-02-28T11:32:56;4.20;99.90
11087;DHT22;5597;47.588;9.642;2023-02-28T11:35:32;4.10;99.90
11087;DHT22;5597;47.588;9.642;2023-02-28T11:38:00;4.00;99.90
11087;DHT22;5597;47.588;9.642;2023-02-28T11:40:33;4.00;99.90
11087;DHT22;5597;47.588;9.642;2023-02-28T11:46:01;3.90;99.90
11087;DHT22;5597;47.588;9.642;2023-02-28T11:51:34;4.00;99.90
11087;DHT22;5597;47.588;9.642;2023-02-28T11:54:23;3.90;99.90
11087;DHT22;5597;47.588;9.642;2023-02-28T12:08:38;3.40;99.90
11087;DHT22;5597;47.588;9.642;2023-02-28T12:19:47;3.20;99.90
11087;DHT22;5597;47.588;9.642;2023-02-28T12:22:31;3.20;99.90
11087;DHT22;5597;47.588;9.642;2023-02-28T12:25:24;3.20;99.90
11087;DHT22;5597;47.588;9.642;2023-02-28T12:27:57;3.30;99.90
11087;DHT22;5597;47.588;9.642;2023-02-28T12:30:32;3.40;99.90
11087;DHT22;5597;47.588;9.642;2023-02-28T12:33:13;3.40;99.90
11087;DHT22;5597;47.588;9.642;2023-02-28T12:35:50;3.60;99.90
11087;DHT22;5597;47.588;9.642;2023-02-28T12:38:29;3.70;99.90
11087;DHT22;5597;47.588;9.642;2023-02-28T12:41:00;3.90;99.90
11087;DHT22;5597;47.588;9.642;2023-02-28T12:43:33;3.90;99.90
11087;DHT22;5597;47.588;9.642;2023-02-28T12:46:02;3.90;99.90
11087;DHT22;5597;47.588;9.642;2023-02-28T12:48:39;3.90;99.90
11087;DHT22;5597;47.588;9.642;2023-02-28T12:51:07;3.80;99.90
11087;DHT22;5597;47.588;9.642;2023-02-28T12:54:04;3.80;99.90
11087;DHT22;5597;47.588;9.642;2023-02-28T12:56:39;3.80;99.90
11087;DHT22;5597;47.588;9.642;2023-02-28T13:02:01;3.70;99.90
11087;DHT22;5597;47.588;9.642;2023-02-28T13:04:47;3.60;99.90
11087;DHT22;5597;47.588;9.642;2023-02-28T13:10:02;3.50;99.90
11087;DHT22;5597;47.588;9.642;2023-02-28T13:12:29;3.50;99.90
11087;DHT22;5597;47.588;9.642;2023-02-28T13:15:08;3.60;99.90
11087;DHT22;5597;47.588;9.642;2023-02-28T13:17:40;3.70;99.90
11087;DHT22;5597;47.588;9.642;2023-02-28T13:20:25;3.70;99.90
11087;DHT22;5597;47.588;9.642;2023-02-28T13:22:55;3.60;99.90
11087;DHT22;5597;47.588;9.642;2023-02-28T13:27:49;3.60;99.90
11087;DHT22;5597;47.588;9.642;2023-02-28T13:33:29;3.50;99.90
11087;DHT22;5597;47.588;9.642;2023-02-28T13:44:09;3.50;99.90
11087;DHT22;5597;47.588;9.642;2023-02-28T13:47:15;3.50;99.90
11087;DHT22;5597;47.588;9.642;2023-02-28T13:51:52;3.50;99.90
11087;DHT22;5597;47.588;9.642;2023-02-28T13:54:34;3.40;99.90
11087;DHT22;5597;47.588;9.642;2023-02-28T14:05:17;3.40;99.90
11087;DHT22;5597;47.588;9.642;2023-02-28T14:07:52;3.40;99.90
11087;DHT22;5597;47.588;9.642;2023-02-28T14:10:34;3.50;99.90
11087;DHT22;5597;47.588;9.642;2023-02-28T14:13:03;3.40;99.90
11087;DHT22;5597;47.588;9.642;2023-02-28T14:16:03;3.30;99.90
11087;DHT22;5597;47.588;9.642;2023-02-28T14:18:34;3.20;99.90
11087;DHT22;5597;47.588;9.642;2023-02-28T14:21:22;3.20;99.90
11087;DHT22;5597;47.588;9.642;2023-02-28T14:37:48;3.20;99.90
11087;DHT22;5597;47.588;9.642;2023-02-28T14:40:30;3.10;99.90
11087;DHT22;5597;47.588;9.642;2023-02-28T14:42:59;3.10;99.90
11087;DHT22;5597;47.588;9.642;2023-02-28T14:45:29;3.00;99.90
11087;DHT22;5597;47.588;9.642;2023-02-28T14:47:56;3.00;99.90
11087;DHT22;5597;47.588;9.642;2023-02-28T14:50:34;2.90;99.90
11087;DHT22;5597;47.588;9.642;2023-02-28T14:53:01;2.80;99.90
11087;DHT22;5597;47.588;9.642;2023-02-28T14:55:36;2.80;99.90
11087;DHT22;5597;47.588;9.642;2023-02-28T14:58:06;2.60;99.90
11087;DHT22;5597;47.588;9.642;2023-02-28T15:00:34;2.70;99.90
11087;DHT22;5597;47.588;9.642;2023-02-28T15:03:11;2.70;99.90
11087;DHT22;5597;47.588;9.642;2023-02-28T15:05:42;2.60;99.90
11087;DHT22;5597;47.588;9.642;2023-02-28T15:08:16;2.40;99.90
11087;DHT22;5597;47.588;9.642;2023-02-28T15:10:57;2.20;99.90
11087;DHT22;5597;47.588;9.642;2023-02-28T15:13:30;2.00;99.90
11087;DHT22;5597;47.588;9.642;2023-02-28T15:16:02;2.00;99.90
11087;DHT22;5597;47.588;9.642;2023-02-28T15:18:46;2.00;99.90
11087;DHT22;5597;47.588;9.642;2023-02-28T15:21:34;1.90;99.90
11087;DHT22;5597;47.588;9.642;2023-02-28T15:26:39;1.90;99.90
11087;DHT22;5597;47.588;9.642;2023-02-28T15:29:07;1.80;99.90
11087;DHT22;5597;47.588;9.642;2023-02-28T15:31:35;1.70;99.90
11087;DHT22;5597;47.588;9.642;2023-02-28T15:34:22;1.70;99.90
11087;DHT22;5597;47.588;9.642;2023-02-28T15:36:48;1.70;99.90
11087;DHT22;5597;47.588;9.642;2023-02-28T15:39:23;1.60;99.90
11087;DHT22;5597;47.588;9.642;2023-02-28T15:41:49;1.60;99.90
11087;DHT22;5597;47.588;9.642;2023-02-28T15:44:25;1.60;99.90
11087;DHT22;5597;47.588;9.642;2023-02-28T15:47:03;1.60;99.90
11087;DHT22;5597;47.588;9.642;2023-02-28T15:49:39;1.50;99.90
11087;DHT22;5597;47.588;9.642;2023-02-28T15:52:05;1.30;99.90
11087;DHT22;5597;47.588;9.642;2023-02-28T15:54:33;1.20;99.90
11087;DHT22;5597;47.588;9.642;2023-02-28T15:57:15;1.20;99.90
11087;DHT22;5597;47.588;9.642;2023-02-28T15:59:49;1.10;99.90
11087;DHT22;5597;47.588;9.642;2023-02-28T16:07:39;0.90;99.90
11087;DHT22;5597;47.588;9.642;2023-02-28T16:10:08;0.90;99.90
11087;DHT22;5597;47.588;9.642;2023-02-28T16:12:36;0.80;99.90
11087;DHT22;5597;47.588;9.642;2023-02-28T16:15:28;0.80;99.90
11087;DHT22;5597;47.588;9.642;2023-02-28T16:17:53;0.70;99.90
11087;DHT22;5597;47.588;9.642;2023-02-28T16:20:25;0.70;99.90
11087;DHT22;5597;47.588;9.642;2023-02-28T16:22:51;0.60;99.90
11087;DHT22;5597;47.588;9.642;2023-02-28T16:25:22;0.60;99.90
11087;DHT22;5597;47.588;9.642;2023-02-28T16:27:50;0.50;99.90
11087;DHT22;5597;47.588;9.642;2023-02-28T16:30:24;0.50;99.90
11087;DHT22;5597;47.588;9.642;2023-02-28T16:32:50;0.50;99.90
11087;DHT22;5597;47.588;9.642;2023-02-28T16:35:17;0.40;99.90
11087;DHT22;5597;47.588;9.642;2023-02-28T16:37:43;0.40;99.90
11087;DHT22;5597;47.588;9.642;2023-02-28T16:40:14;0.40;99.90
11087;DHT22;5597;47.588;9.642;2023-02-28T16:42:41;0.30;99.90
11087;DHT22;5597;47.588;9.642;2023-02-28T16:45:15;0.30;99.90
11087;DHT22;5597;47.588;9.642;2023-02-28T16:47:42;0.30;99.90
11087;DHT22;5597;47.588;9.642;2023-02-28T16:50:34;0.30;99.90
11087;DHT22;5597;47.588;9.642;2023-02-28T16:52:59;0.30;99.90
11087;DHT22;5597;47.588;9.642;2023-02-28T16:55:26;0.20;99.90
11087;DHT22;5597;47.588;9.642;2023-02-28T16:57:54;0.20;99.90
11087;DHT22;5597;47.588;9.642;2023-02-28T17:00:21;0.20;99.90
11087;DHT22;5597;47.588;9.642;2023-02-28T17:02:47;0.20;99.90
11087;DHT22;5597;47.588;9.642;2023-02-28T17:05:13;0.10;99.90
11087;DHT22;5597;47.588;9.642;2023-02-28T17:07:41;0.10;99.90
11087;DHT22;5597;47.588;9.642;2023-02-28T17:10:24;0.10;99.90
11087;DHT22;5597;47.588;9.642;2023-02-28T17:12:51;0.10;99.90
11087;DHT22;5597;47.588;9.642;2023-02-28T17:15:18;0.10;99.90
11087;DHT22;5597;47.588;9.642;2023-02-28T17:17:45;0.10;99.90
11087;DHT22;5597;47.588;9.642;2023-02-28T17:20:15;0.10;99.90
11087;DHT22;5597;47.588;9.642;2023-02-28T17:22:41;0.00;99.90
11087;DHT22;5597;47.588;9.642;2023-02-28T17:25:08;0.10;99.90
11087;DHT22;5597;47.588;9.642;2023-02-28T17:27:34;0.10;99.90
11087;DHT22;5597;47.588;9.642;2023-02-28T17:30:00;0.10;99.90
11087;DHT22;5597;47.588;9.642;2023-02-28T17:32:26;0.10;99.90
11087;DHT22;5597;47.588;9.642;2023-02-28T17:34:53;0.10;99.90
11087;DHT22;5597;47.588;9.642;2023-02-28T17:37:18;0.10;99.90
11087;DHT22;5597;47.588;9.642;2023-02-28T17:39:44;0.10;99.90
11087;DHT22;5597;47.588;9.642;2023-02-28T17:42:09;0.10;99.90
11087;DHT22;5597;47.588;9.642;2023-02-28T17:44:35;0.20;99.90
11087;DHT22;5597;47.588;9.642;2023-02-28T17:47:02;0.10;99.90
11087;DHT22;5597;47.588;9.642;2023-02-28T17:49:28;0.10;99.90
11087;DHT22;5597;47.588;9.642;2023-02-28T17:51:54;0.10;99.90
11087;DHT22;5597;47.588;9.642;2023-02-28T17:54:19;0.10;99.90
11087;DHT22;5597;47.588;9.642;2023-02-28T17:56:45;0.10;99.90
11087;DHT22;5597;47.588;9.642;2023-02-28T17:59:12;0.10;99.90
11087;DHT22;5597;47.588;9.642;2023-02-28T18:01:38;0.10;99.90
11087;DHT22;5597;47.588;9.642;2023-02-28T18:04:03;0.10;99.90
11087;DHT22;5597;47.588;9.642;2023-02-28T18:06:35;0.10;99.90
11087;DHT22;5597;47.588;9.642;2023-02-28T18:09:02;0.10;99.90
11087;DHT22;5597;47.588;9.642;2023-02-28T18:11:28;0.10;99.90
11087;DHT22;5597;47.588;9.642;2023-02-28T18:14:07;0.00;99.90
11087;DHT22;5597;47.588;9.642;2023-02-28T18:16:32;0.00;99.90
11087;DHT22;5597;47.588;9.642;2023-02-28T18:18:58;0.00;99.90
11087;DHT22;5597;47.588;9.642;2023-02-28T18:21:23;0.00;99.90
11087;DHT22;5597;47.588;9.642;2023-02-28T18:23:49;0.00;99.90